Time;durP1;ratioP1;P1;durP2;ratioP2;P2;SDS_P1;SDS_P2;PMS_P1;PMS_P2;Temp;Humidity;BMP_temperature;BMP_pressure;BME280_temperature;BME280_humidity;BME280_pressure;Samples;Min_cycle;Max_cycle;Signal;HPM_P1;HPM_P2
2022/05/23 00:00:03;;;;;;;;;;;;;;;;;;5034793;28;19924;-75
2022/05/23 00:02:29;;;;;;;;;;;;;;;;;;4992313;28;19917;-75
2022/05/23 00:04:54;;;;;;;;;;;;;;;;;;5015435;28;19924;-75
2022/05/23 00:07:23;;;;;;;;;;;;;;;;;;5006824;28;20371;-75
2022/05/23 00:09:49;;;;;;;;;;;;;;;;;;5015102;28;19975;-75
2022/05/23 00:12:15;;;;;;;;;;;;;;;;;;5015296;28;20286;-75
2022/05/23 00:14:42;;;;;;;;;;;;;;;;;;5010279;28;19917;-75
2022/05/23 00:17:09;;;;;;;;;;;;;;;;;;4998292;28;19924;-75
2022/05/23 00:19:34;;;;;;;;;;;;;;;;;;5008762;28;20004;-75
2022/05/23 00:22:00;;;;;;;;;;;;;;;;;;4998843;28;20461;-75
2022/05/23 00:24:25;;;;;;;;;;;;;;;;;;4991808;28;20320;-75
2022/05/23 00:26:51;;;;;;;;;;;;;;;;;;5015830;28;20000;-74
2022/05/23 00:29:19;;;;;;;;;;;;;;;;;;5016146;28;20012;-75
2022/05/23 00:37:13;;;;;;;;;;;;;;;;;;5015905;28;20000;-75
2022/05/23 00:39:38;;;;;;;;;;;;;;;;;;5009257;28;20015;-74
2022/05/23 00:44:53;;;;;;;;;;;;;;;;;;5009760;28;19925;-74
2022/05/23 00:47:21;;;;;;;;;;;;;;;;;;5014209;28;19921;-74
2022/05/23 00:49:46;;;;;;;;;;;;;;;;;;4997523;28;19913;-74
2022/05/23 00:52:19;;;;;;;;;;;;;;;;;;5014010;28;19917;-74
2022/05/23 00:54:49;;;;;;;;;;;;;;;;;;5009678;28;19929;-75
2022/05/23 00:57:18;;;;;;;;;;;;;;;;;;4998019;28;20391;-75
2022/05/23 00:59:44;;;;;;;;;;;;;;;;;;5009579;28;19964;-75
2022/05/23 01:02:11;;;;;;;;;;;;;;;;;;4997869;28;19918;-74
2022/05/23 01:04:39;;;;;;;;;;;;;;;;;;5008320;28;19917;-74
2022/05/23 01:07:05;;;;;;;;;;;;;;;;;;5013928;28;19941;-74
2022/05/23 01:09:31;;;;;;;;;;;;;;;;;;5024068;28;20323;-75
2022/05/23 01:11:58;;;;;;;;;;;;;;;;;;5013927;28;19921;-75
2022/05/23 01:14:24;;;;;;;;;;;;;;;;;;5006726;28;19924;-74
2022/05/23 01:16:49;;;;;;;;;;;;;;;;;;5013808;28;19917;-75
2022/05/23 01:19:15;;;;;;;;;;;;;;;;;;5013631;28;19999;-75
2022/05/23 01:21:46;;;;;;;;;;;;;;;;;;5008741;28;19964;-75
2022/05/23 01:24:31;;;;;;;;;;;;;;;;;;5013594;28;19928;-74
2022/05/23 01:26:58;;;;;;;;;;;;;;;;;;5010957;28;19924;-75
2022/05/23 01:29:35;;;;;;;;;;;;;;;;;;5008007;28;20271;-75
2022/05/23 01:32:11;;;;;;;;;;;;;;;;;;5013786;28;20268;-75
2022/05/23 01:34:42;;;;;;;;;;;;;;;;;;4991959;28;19971;-75
2022/05/23 01:37:10;;;;;;;;;;;;;;;;;;5013413;28;19924;-75
2022/05/23 01:39:54;;;;;;;;;;;;;;;;;;5014647;28;20331;-75
2022/05/23 01:42:34;;;;;;;;;;;;;;;;;;5007333;28;19917;-75
2022/05/23 01:44:59;;;;;;;;;;;;;;;;;;4996900;28;19924;-75
2022/05/23 01:47:25;;;;;;;;;;;;;;;;;;5006146;28;19921;-75
2022/05/23 01:49:59;;;;;;;;;;;;;;;;;;5013218;28;19959;-75
2022/05/23 01:52:39;;;;;;;;;;;;;;;;;;5014407;28;20429;-75
2022/05/23 01:55:24;;;;;;;;;;;;;;;;;;4995381;28;19983;-75
2022/05/23 01:58:01;;;;;;;;;;;;;;;;;;4977154;28;19968;-75
2022/05/23 02:03:11;;;;;;;;;;;;;;;;;;4974183;28;19918;-75
2022/05/23 02:05:36;;;;;;;;;;;;;;;;;;4973884;28;20009;-74
2022/05/23 02:08:02;;;;;;;;;;;;;;;;;;4957935;28;19930;-75
2022/05/23 02:10:29;;;;;;;;;;;;;;;;;;4957518;28;19925;-75
2022/05/23 02:12:56;;;;;;;;;;;;;;;;;;4957808;28;20419;-75
2022/05/23 02:15:24;;;;;;;;;;;;;;;;;;4973880;28;20388;-72
2022/05/23 02:18:08;;;;;;;;;;;;;;;;;;4975148;28;19925;-74
2022/05/23 02:20:33;;;;;;;;;;;;;;;;;;4973714;28;19918;-74
2022/05/23 02:22:59;;;;;;;;;;;;;;;;;;4941785;28;19918;-75
2022/05/23 02:25:27;;;;;;;;;;;;;;;;;;4973734;28;19918;-75
2022/05/23 02:27:52;;;;;;;;;;;;;;;;;;4941818;28;19972;-75
2022/05/23 02:30:18;;;;;;;;;;;;;;;;;;4960195;28;19922;-74
2022/05/23 02:32:45;;;;;;;;;;;;;;;;;;4976979;28;20009;-74
2022/05/23 02:35:13;;;;;;;;;;;;;;;;;;4993031;28;19925;-74
2022/05/23 02:37:39;;;;;;;;;;;;;;;;;;4976023;28;19914;-74
2022/05/23 02:40:05;;;;;;;;;;;;;;;;;;4976749;28;19972;-74
2022/05/23 02:42:31;;;;;;;;;;;;;;;;;;4993009;28;19918;-74
2022/05/23 02:44:58;;;;;;;;;;;;;;;;;;4961032;28;19918;-75
2022/05/23 02:47:27;;;;;;;;;;;;;;;;;;4961174;28;20000;-76
2022/05/23 02:49:54;;;;;;;;;;;;;;;;;;4961273;28;19918;-76
2022/05/23 02:52:30;;;;;;;;;;;;;;;;;;4978129;28;19937;-76
2022/05/23 02:55:02;;;;;;;;;;;;;;;;;;4976918;28;20384;-74
2022/05/23 02:57:29;;;;;;;;;;;;;;;;;;4960684;28;19921;-74
2022/05/23 02:59:54;;;;;;;;;;;;;;;;;;4976765;28;19933;-74
2022/05/23 03:05:05;;;;;;;;;;;;;;;;;;4976216;28;19918;-74
2022/05/23 03:07:30;;;;;;;;;;;;;;;;;;4976793;28;19918;-74
2022/05/23 03:09:59;;;;;;;;;;;;;;;;;;4976443;28;19944;-74
2022/05/23 03:12:26;;;;;;;;;;;;;;;;;;4993902;28;19921;-74
2022/05/23 03:14:52;;;;;;;;;;;;;;;;;;4996247;28;19918;-74
2022/05/23 03:17:17;;;;;;;;;;;;;;;;;;4980276;28;20271;-74
2022/05/23 03:19:44;;;;;;;;;;;;;;;;;;4980352;28;19918;-74
2022/05/23 03:27:39;;;;;;;;;;;;;;;;;;4980231;28;20019;-74
2022/05/23 03:30:13;;;;;;;;;;;;;;;;;;4980099;28;19924;-74
2022/05/23 03:32:49;;;;;;;;;;;;;;;;;;4979067;28;19918;-74
2022/05/23 03:35:15;;;;;;;;;;;;;;;;;;4980037;28;19918;-74
2022/05/23 03:37:40;;;;;;;;;;;;;;;;;;4980035;28;19918;-74
2022/05/23 03:40:08;;;;;;;;;;;;;;;;;;4997486;28;20016;-74
2022/05/23 03:42:36;;;;;;;;;;;;;;;;;;4997406;28;19924;-74
2022/05/23 03:45:07;;;;;;;;;;;;;;;;;;4963833;28;19932;-74
2022/05/23 03:47:40;;;;;;;;;;;;;;;;;;4979653;28;20284;-74
2022/05/23 03:50:11;;;;;;;;;;;;;;;;;;4964369;28;20046;-74
2022/05/23 03:52:37;;;;;;;;;;;;;;;;;;4963273;28;19969;-74
2022/05/23 03:55:02;;;;;;;;;;;;;;;;;;5001731;28;20289;-74
2022/05/23 03:57:28;;;;;;;;;;;;;;;;;;5031981;28;19917;-74
2022/05/23 03:59:54;;;;;;;;;;;;;;;;;;4999082;28;19940;-74
2022/05/23 04:02:20;;;;;;;;;;;;;;;;;;5015391;28;19926;-74
2022/05/23 04:04:46;;;;;;;;;;;;;;;;;;4998953;28;19917;-74
2022/05/23 04:07:33;;;;;;;;;;;;;;;;;;5016286;28;19928;-74
2022/05/23 04:10:12;;;;;;;;;;;;;;;;;;5015179;28;20008;-74
2022/05/23 04:12:38;;;;;;;;;;;;;;;;;;5015154;28;19921;-74
2022/05/23 04:15:04;;;;;;;;;;;;;;;;;;5015064;28;19925;-74
2022/05/23 04:17:29;;;;;;;;;;;;;;;;;;5014988;28;19921;-74
2022/05/23 04:19:55;;;;;;;;;;;;;;;;;;5014997;28;20056;-74
2022/05/23 04:22:24;;;;;;;;;;;;;;;;;;5015030;28;19933;-74
2022/05/23 04:25:00;;;;;;;;;;;;;;;;;;5013998;28;20430;-74
2022/05/23 04:27:26;;;;;;;;;;;;;;;;;;5014606;28;20008;-74
2022/05/23 04:29:52;;;;;;;;;;;;;;;;;;5014724;28;20017;-74
2022/05/23 04:35:14;;;;;;;;;;;;;;;;;;5015736;28;20322;-74
2022/05/23 04:37:45;;;;;;;;;;;;;;;;;;5014620;28;19921;-74
2022/05/23 04:40:17;;;;;;;;;;;;;;;;;;4998071;28;20009;-74
2022/05/23 04:42:43;;;;;;;;;;;;;;;;;;5015899;28;19918;-74
2022/05/23 04:45:09;;;;;;;;;;;;;;;;;;5014388;28;20398;-74
2022/05/23 04:50:28;;;;;;;;;;;;;;;;;;5014248;28;20010;-74
2022/05/23 04:53:02;;;;;;;;;;;;;;;;;;5014282;28;19917;-74
2022/05/23 04:55:30;;;;;;;;;;;;;;;;;;5014053;28;20008;-74
2022/05/23 04:57:58;;;;;;;;;;;;;;;;;;5015542;28;20422;-74
2022/05/23 05:00:24;;;;;;;;;;;;;;;;;;5015321;28;19917;-74
2022/05/23 05:02:54;;;;;;;;;;;;;;;;;;5010879;28;20450;-74
2022/05/23 05:05:29;;;;;;;;;;;;;;;;;;5007146;28;20402;-74
2022/05/23 05:07:55;;;;;;;;;;;;;;;;;;5013973;28;20004;-74
2022/05/23 05:10:23;;;;;;;;;;;;;;;;;;5006257;28;20379;-74
2022/05/23 05:12:49;;;;;;;;;;;;;;;;;;4997767;28;20423;-74
2022/05/23 05:15:19;;;;;;;;;;;;;;;;;;5013319;28;19963;-74
2022/05/23 05:17:44;;;;;;;;;;;;;;;;;;5013758;28;19917;-74
2022/05/23 05:20:10;;;;;;;;;;;;;;;;;;5015066;28;19925;-74
2022/05/23 05:22:58;;;;;;;;;;;;;;;;;;5014950;28;20302;-74
2022/05/23 05:25:43;;;;;;;;;;;;;;;;;;5008731;28;20375;-74
2022/05/23 05:28:16;;;;;;;;;;;;;;;;;;5013476;28;19921;-74
2022/05/23 05:30:43;;;;;;;;;;;;;;;;;;5008637;28;19924;-74
2022/05/23 05:33:12;;;;;;;;;;;;;;;;;;5013674;28;19945;-74
2022/05/23 05:35:40;;;;;;;;;;;;;;;;;;5007494;28;19917;-74
2022/05/23 05:38:10;;;;;;;;;;;;;;;;;;4997104;28;19917;-74
2022/05/23 05:40:36;;;;;;;;;;;;;;;;;;5007685;28;20391;-74
2022/05/23 05:43:10;;;;;;;;;;;;;;;;;;5013544;28;19917;-74
2022/05/23 05:45:41;;;;;;;;;;;;;;;;;;4991769;28;20033;-74
2022/05/23 05:48:29;;;;;;;;;;;;;;;;;;5014308;28;19929;-74
2022/05/23 05:50:56;;;;;;;;;;;;;;;;;;5013586;28;19917;-74
2022/05/23 05:53:27;;;;;;;;;;;;;;;;;;5005221;28;19918;-75
2022/05/23 05:55:56;;;;;;;;;;;;;;;;;;4994179;28;19918;-74
2022/05/23 05:58:22;;;;;;;;;;;;;;;;;;4996849;28;19964;-74
2022/05/23 06:00:52;;;;;;;;;;;;;;;;;;4996780;28;19917;-74
2022/05/23 06:03:20;;;;;;;;;;;;;;;;;;4996686;28;19924;-74
2022/05/23 06:11:30;;;;;;;;;;;;;;;;;;4996398;28;19918;-74
2022/05/23 06:14:10;;;;;;;;;;;;;;;;;;4996529;28;20008;-74
2022/05/23 06:16:39;;;;;;;;;;;;;;;;;;4996539;28;19956;-74
2022/05/23 06:19:14;;;;;;;;;;;;;;;;;;4996658;28;19991;-74
2022/05/23 06:21:52;;;;;;;;;;;;;;;;;;4981892;28;19924;-74
2022/05/23 06:24:17;;;;;;;;;;;;;;;;;;4996564;28;20012;-74
2022/05/23 06:26:46;;;;;;;;;;;;;;;;;;4980594;28;19917;-74
2022/05/23 06:29:21;;;;;;;;;;;;;;;;;;4997900;28;19964;-74
2022/05/23 06:31:47;;;;;;;;;;;;;;;;;;4995822;28;20012;-74
2022/05/23 06:34:16;;;;;;;;;;;;;;;;;;4996484;28;19928;-74
2022/05/23 06:36:44;;;;;;;;;;;;;;;;;;4996207;28;19924;-74
2022/05/23 06:39:09;;;;;;;;;;;;;;;;;;4996189;28;19921;-74
2022/05/23 06:41:55;;;;;;;;;;;;;;;;;;5003263;28;19964;-74
2022/05/23 06:44:49;;;;;;;;;;;;;;;;;;5013687;28;20367;-74
2022/05/23 06:47:33;;;;;;;;;;;;;;;;;;5014779;28;19929;-75
2022/05/23 06:50:17;;;;;;;;;;;;;;;;;;5017786;28;19933;-74
2022/05/23 06:53:02;;;;;;;;;;;;;;;;;;5002707;28;19917;-74
2022/05/23 06:55:43;;;;;;;;;;;;;;;;;;4979090;28;19930;-74
2022/05/23 06:58:11;;;;;;;;;;;;;;;;;;4980072;28;19918;-75
2022/05/23 07:00:37;;;;;;;;;;;;;;;;;;4979992;28;19914;-75
2022/05/23 07:03:10;;;;;;;;;;;;;;;;;;4980304;28;20012;-77
2022/05/23 07:14:28;;;;;;;;;;;;;;;;;;4993343;28;19922;-78
2022/05/23 07:16:59;;;;;;;;;;;;;;;;;;4965327;28;20339;-78
2022/05/23 07:19:45;;;;;;;;;;;;;;;;;;4999628;28;19918;-77
2022/05/23 07:22:14;;;;;;;;;;;;;;;;;;4966221;28;19918;-78
2022/05/23 07:24:41;;;;;;;;;;;;;;;;;;4966484;28;19918;-78
2022/05/23 07:27:12;;;;;;;;;;;;;;;;;;4966884;28;19918;-78
2022/05/23 07:29:38;;;;;;;;;;;;;;;;;;4966156;28;20008;-78
2022/05/23 07:32:08;;;;;;;;;;;;;;;;;;4983025;28;20364;-78
2022/05/23 07:34:33;;;;;;;;;;;;;;;;;;4981252;28;19918;-77
2022/05/23 07:36:59;;;;;;;;;;;;;;;;;;4981637;28;19925;-78
2022/05/23 07:39:26;;;;;;;;;;;;;;;;;;4964902;28;19918;-77
2022/05/23 07:42:02;;;;;;;;;;;;;;;;;;4965355;28;19925;-80
2022/05/23 07:44:28;;;;;;;;;;;;;;;;;;4986459;28;19922;-79
2022/05/23 07:47:01;;;;;;;;;;;;;;;;;;4972561;28;19918;-78
2022/05/23 07:49:27;;;;;;;;;;;;;;;;;;4971655;28;19926;-79
2022/05/23 07:52:06;;;;;;;;;;;;;;;;;;4972411;28;19917;-79
2022/05/23 08:00:33;;;;;;;;;;;;;;;;;;4997730;28;20347;-79
2022/05/23 08:03:19;;;;;;;;;;;;;;;;;;5003366;28;20303;-80
2022/05/23 08:06:05;;;;;;;;;;;;;;;;;;4997983;28;19917;-81
2022/05/23 08:08:32;;;;;;;;;;;;;;;;;;5002790;28;19922;-81
2022/05/23 08:10:58;;;;;;;;;;;;;;;;;;5003268;28;20430;-82
2022/05/23 08:13:28;;;;;;;;;;;;;;;;;;5002246;28;20455;-78
2022/05/23 08:15:53;;;;;;;;;;;;;;;;;;4996920;28;19957;-75
2022/05/23 08:18:19;;;;;;;;;;;;;;;;;;4978929;28;19940;-76
2022/05/23 08:20:54;;;;;;;;;;;;;;;;;;4995015;28;19918;-75
2022/05/23 08:23:26;;;;;;;;;;;;;;;;;;4994686;28;20268;-81
2022/05/23 08:26:10;;;;;;;;;;;;;;;;;;4997683;28;19918;-80
2022/05/23 08:28:41;;;;;;;;;;;;;;;;;;4997244;28;19982;-77
2022/05/23 08:31:06;;;;;;;;;;;;;;;;;;4980627;28;20291;-78
2022/05/23 08:33:40;;;;;;;;;;;;;;;;;;4996454;28;19917;-81
2022/05/23 08:36:38;;;;;;;;;;;;;;;;;;4986527;28;19918;-79
2022/05/23 08:39:04;;;;;;;;;;;;;;;;;;4998330;28;19969;-80
2022/05/23 08:41:40;;;;;;;;;;;;;;;;;;4996485;28;19918;-78
2022/05/23 08:44:28;;;;;;;;;;;;;;;;;;4997417;28;19918;-78
2022/05/23 08:47:06;;;;;;;;;;;;;;;;;;4994033;28;20439;-79
2022/05/23 08:49:45;;;;;;;;;;;;;;;;;;4961228;28;20261;-78
2022/05/23 08:52:19;;;;;;;;;;;;;;;;;;4961125;28;20488;-79
2022/05/23 08:54:50;;;;;;;;;;;;;;;;;;4986070;28;19981;-78
2022/05/23 08:57:55;;;;;;;;;;;;;;;;;;4995151;28;21608;-77
2022/05/23 09:00:30;;;;;;;;;;;;;;;;;;4998272;28;19964;-77
2022/05/23 09:03:15;;;;;;;;;;;;;;;;;;5014765;28;19968;-77
2022/05/23 09:05:46;;;;;;;;;;;;;;;;;;5014395;28;19918;-77
2022/05/23 09:08:13;;;;;;;;;;;;;;;;;;5030437;28;19929;-77
2022/05/23 09:10:44;;;;;;;;;;;;;;;;;;5015452;28;19917;-77
2022/05/23 09:13:09;;;;;;;;;;;;;;;;;;5015478;28;19925;-77
2022/05/23 09:15:35;;;;;;;;;;;;;;;;;;5013872;28;20391;-77
2022/05/23 09:18:05;;;;;;;;;;;;;;;;;;5013668;28;19917;-76
2022/05/23 09:20:47;;;;;;;;;;;;;;;;;;4997672;28;19917;-76
2022/05/23 09:23:20;;;;;;;;;;;;;;;;;;4997455;28;19968;-76
2022/05/23 09:25:49;;;;;;;;;;;;;;;;;;5014074;28;19921;-76
2022/05/23 09:28:22;;;;;;;;;;;;;;;;;;5015215;28;19925;-77
2022/05/23 09:30:53;;;;;;;;;;;;;;;;;;5020306;28;19921;-76
2022/05/23 09:33:20;;;;;;;;;;;;;;;;;;5034653;28;19917;-78
2022/05/23 09:35:45;;;;;;;;;;;;;;;;;;5018198;28;19917;-77
2022/05/23 09:38:16;;;;;;;;;;;;;;;;;;5015363;28;19921;-76
2022/05/23 09:41:05;;;;;;;;;;;;;;;;;;5009674;28;19917;-77
2022/05/23 09:49:30;;;;;;;;;;;;;;;;;;5014563;28;19922;-77
2022/05/23 09:52:12;;;;;;;;;;;;;;;;;;5008044;28;20334;-76
2022/05/23 09:54:46;;;;;;;;;;;;;;;;;;5013138;28;19925;-77
2022/05/23 09:57:23;;;;;;;;;;;;;;;;;;5014683;28;20257;-78
2022/05/23 09:59:57;;;;;;;;;;;;;;;;;;5015916;28;19917;-78
2022/05/23 10:02:29;;;;;;;;;;;;;;;;;;5017313;28;19925;-79
2022/05/23 10:04:54;;;;;;;;;;;;;;;;;;5001537;28;19968;-77
2022/05/23 10:07:38;;;;;;;;;;;;;;;;;;5015876;28;19917;-80
2022/05/23 10:10:05;;;;;;;;;;;;;;;;;;5001771;28;19986;-80
2022/05/23 10:12:34;;;;;;;;;;;;;;;;;;5019838;28;19924;-81
2022/05/23 10:15:09;;;;;;;;;;;;;;;;;;5020150;28;20012;-80
2022/05/23 10:17:37;;;;;;;;;;;;;;;;;;5003369;28;19964;-77
2022/05/23 10:20:21;;;;;;;;;;;;;;;;;;5015598;28;20007;-77
2022/05/23 10:22:55;;;;;;;;;;;;;;;;;;4998587;28;19917;-78
2022/05/23 10:25:20;;;;;;;;;;;;;;;;;;5018688;28;19918;-77
2022/05/23 10:27:48;;;;;;;;;;;;;;;;;;5017666;28;19972;-78
2022/05/23 10:30:14;;;;;;;;;;;;;;;;;;5016834;28;19924;-77
2022/05/23 10:32:52;;;;;;;;;;;;;;;;;;5017323;28;19987;-78
2022/05/23 10:35:21;;;;;;;;;;;;;;;;;;5004052;28;20345;-79
2022/05/23 10:37:46;;;;;;;;;;;;;;;;;;5006492;28;19917;-79
2022/05/23 10:43:11;;;;;;;;;;;;;;;;;;5023315;28;19925;-79
2022/05/23 10:45:47;;;;;;;;;;;;;;;;;;5021923;28;19932;-80
2022/05/23 10:48:16;;;;;;;;;;;;;;;;;;5022451;28;19925;-78
2022/05/23 10:50:56;;;;;;;;;;;;;;;;;;5022246;28;19917;-80
2022/05/23 10:53:30;;;;;;;;;;;;;;;;;;5023150;28;19918;-79
2022/05/23 10:56:15;;;;;;;;;;;;;;;;;;4986413;28;19918;-79
2022/05/23 10:58:48;;;;;;;;;;;;;;;;;;4986835;28;20384;-77
2022/05/23 11:01:32;;;;;;;;;;;;;;;;;;4987780;28;19925;-77
2022/05/23 11:04:09;;;;;;;;;;;;;;;;;;4981646;28;20342;-77
2022/05/23 11:06:53;;;;;;;;;;;;;;;;;;4979365;28;19918;-77
2022/05/23 11:09:39;;;;;;;;;;;;;;;;;;4979901;28;19944;-77
2022/05/23 11:12:04;;;;;;;;;;;;;;;;;;4976148;28;19917;-77
2022/05/23 11:15:05;;;;;;;;;;;;;;;;;;4983673;28;19924;-77
2022/05/23 11:17:48;;;;;;;;;;;;;;;;;;4956511;29;19919;-77
2022/05/23 11:20:28;;;;;;;;;;;;;;;;;;4986779;28;19917;-77
2022/05/23 11:23:02;;;;;;;;;;;;;;;;;;5016615;28;19917;-78
2022/05/23 11:25:27;;;;;;;;;;;;;;;;;;4983673;28;19921;-77
2022/05/23 11:33:41;;;;;;;;;;;;;;;;;;5000183;28;20009;-77
2022/05/23 11:36:09;;;;;;;;;;;;;;;;;;5003495;28;19932;-77
2022/05/23 11:38:41;;;;;;;;;;;;;;;;;;5002838;28;19928;-78
2022/05/23 11:41:26;;;;;;;;;;;;;;;;;;5002506;28;20004;-78
2022/05/23 11:43:51;;;;;;;;;;;;;;;;;;5002956;28;19917;-77
2022/05/23 11:46:24;;;;;;;;;;;;;;;;;;5002331;28;19921;-77
2022/05/23 11:48:55;;;;;;;;;;;;;;;;;;5002059;28;19921;-77
2022/05/23 11:51:30;;;;;;;;;;;;;;;;;;5002165;28;19960;-78
2022/05/23 11:54:03;;;;;;;;;;;;;;;;;;5003993;28;20002;-77
2022/05/23 11:56:35;;;;;;;;;;;;;;;;;;5011743;28;19956;-77
2022/05/23 11:59:04;;;;;;;;;;;;;;;;;;5001671;28;19917;-77
2022/05/23 12:01:29;;;;;;;;;;;;;;;;;;5011363;28;19940;-77
2022/05/23 12:03:55;;;;;;;;;;;;;;;;;;5001434;28;20363;-77
2022/05/23 12:06:24;;;;;;;;;;;;;;;;;;5018065;28;19960;-77
2022/05/23 12:09:01;;;;;;;;;;;;;;;;;;5013640;28;19921;-77
2022/05/23 12:11:37;;;;;;;;;;;;;;;;;;5017462;28;19918;-77
2022/05/23 12:14:11;;;;;;;;;;;;;;;;;;5001112;28;19924;-78
2022/05/23 12:16:38;;;;;;;;;;;;;;;;;;5012175;28;20283;-77
2022/05/23 12:19:22;;;;;;;;;;;;;;;;;;5017340;28;19924;-78
2022/05/23 12:21:47;;;;;;;;;;;;;;;;;;5013231;28;19924;-77
2022/05/23 12:24:13;;;;;;;;;;;;;;;;;;5017381;28;20286;-77
2022/05/23 12:26:39;;;;;;;;;;;;;;;;;;5011433;28;19918;-77
2022/05/23 12:29:40;;;;;;;;;;;;;;;;;;5017745;28;19952;-78
2022/05/23 12:32:27;;;;;;;;;;;;;;;;;;4955803;28;20409;-77
2022/05/23 12:34:54;;;;;;;;;;;;;;;;;;4993705;28;19918;-77
2022/05/23 12:37:32;;;;;;;;;;;;;;;;;;4974882;28;20445;-77
2022/05/23 12:40:02;;;;;;;;;;;;;;;;;;4998238;28;19928;-78
2022/05/23 12:42:46;;;;;;;;;;;;;;;;;;5014784;28;19925;-77
2022/05/23 12:45:18;;;;;;;;;;;;;;;;;;5013035;28;19940;-77
2022/05/23 12:47:55;;;;;;;;;;;;;;;;;;4995792;28;19995;-78
2022/05/23 12:50:44;;;;;;;;;;;;;;;;;;5002497;28;19924;-78
2022/05/23 12:53:33;;;;;;;;;;;;;;;;;;5003196;28;19918;-78
2022/05/23 12:56:03;;;;;;;;;;;;;;;;;;4985419;28;19928;-78
2022/05/23 12:58:45;;;;;;;;;;;;;;;;;;4986838;28;19929;-78
2022/05/23 13:01:13;;;;;;;;;;;;;;;;;;4984371;28;20364;-78
2022/05/23 13:03:42;;;;;;;;;;;;;;;;;;4984148;28;19940;-77
2022/05/23 13:06:31;;;;;;;;;;;;;;;;;;5001372;28;19921;-77
2022/05/23 13:09:06;;;;;;;;;;;;;;;;;;5000159;28;19968;-77
2022/05/23 13:11:57;;;;;;;;;;;;;;;;;;5000510;28;19917;-78
2022/05/23 13:14:23;;;;;;;;;;;;;;;;;;4997226;28;19945;-77
2022/05/23 13:16:52;;;;;;;;;;;;;;;;;;5000249;28;19917;-77
2022/05/23 13:22:11;;;;;;;;;;;;;;;;;;4999837;28;20011;-77
2022/05/23 13:24:49;;;;;;;;;;;;;;;;;;5000469;28;20359;-77
2022/05/23 13:27:44;;;;;;;;;;;;;;;;;;5000918;28;19925;-77
2022/05/23 13:30:16;;;;;;;;;;;;;;;;;;4975275;28;19923;-77
2022/05/23 13:32:41;;;;;;;;;;;;;;;;;;4998807;28;20349;-76
2022/05/23 13:35:18;;;;;;;;;;;;;;;;;;5015146;28;20015;-77
2022/05/23 13:37:43;;;;;;;;;;;;;;;;;;4999279;28;19921;-77
2022/05/23 13:40:11;;;;;;;;;;;;;;;;;;4999653;28;19971;-77
2022/05/23 13:42:36;;;;;;;;;;;;;;;;;;4999230;28;19918;-77
2022/05/23 13:45:08;;;;;;;;;;;;;;;;;;4999087;28;19924;-77
2022/05/23 13:47:34;;;;;;;;;;;;;;;;;;5015892;28;19924;-78
2022/05/23 13:50:06;;;;;;;;;;;;;;;;;;4999792;28;19995;-77
2022/05/23 13:52:35;;;;;;;;;;;;;;;;;;4999108;28;19917;-78
2022/05/23 13:55:06;;;;;;;;;;;;;;;;;;5000584;28;19929;-78
2022/05/23 13:57:37;;;;;;;;;;;;;;;;;;5000451;28;19929;-77
2022/05/23 14:00:12;;;;;;;;;;;;;;;;;;5017929;28;19924;-77
2022/05/23 14:02:44;;;;;;;;;;;;;;;;;;5000806;28;19933;-78
2022/05/23 14:05:11;;;;;;;;;;;;;;;;;;5003223;28;20322;-78
2022/05/23 14:07:39;;;;;;;;;;;;;;;;;;5019272;28;19956;-77
2022/05/23 14:10:06;;;;;;;;;;;;;;;;;;5019277;28;19917;-78
2022/05/23 14:12:33;;;;;;;;;;;;;;;;;;5002490;28;19917;-78
2022/05/23 14:15:04;;;;;;;;;;;;;;;;;;5002129;28;19922;-78
2022/05/23 14:17:38;;;;;;;;;;;;;;;;;;4986259;28;20056;-78
2022/05/23 14:20:20;;;;;;;;;;;;;;;;;;4986125;28;19924;-78
2022/05/23 14:23:01;;;;;;;;;;;;;;;;;;4986216;28;20264;-77
2022/05/23 14:25:31;;;;;;;;;;;;;;;;;;4986327;28;19917;-78
2022/05/23 14:28:04;;;;;;;;;;;;;;;;;;5020411;28;19922;-78
2022/05/23 14:30:35;;;;;;;;;;;;;;;;;;5002382;28;19917;-78
2022/05/23 14:33:07;;;;;;;;;;;;;;;;;;5019426;28;19925;-78
2022/05/23 14:35:34;;;;;;;;;;;;;;;;;;5001382;28;19921;-77
2022/05/23 14:38:00;;;;;;;;;;;;;;;;;;5001299;28;19996;-77
2022/05/23 14:40:39;;;;;;;;;;;;;;;;;;5000954;28;20410;-78
2022/05/23 14:43:10;;;;;;;;;;;;;;;;;;5000837;28;19918;-77
2022/05/23 14:45:48;;;;;;;;;;;;;;;;;;4983687;28;19956;-77
2022/05/23 14:48:21;;;;;;;;;;;;;;;;;;5001027;28;19961;-77
2022/05/23 14:50:52;;;;;;;;;;;;;;;;;;4984453;28;19956;-78
2022/05/23 14:56:24;;;;;;;;;;;;;;;;;;4980329;28;19918;-78
2022/05/23 15:01:35;;;;;;;;;;;;;;;;;;4981704;28;19925;-77
2022/05/23 15:04:01;;;;;;;;;;;;;;;;;;4965070;28;19921;-78
2022/05/23 15:06:27;;;;;;;;;;;;;;;;;;4947325;28;19918;-78
2022/05/23 15:08:52;;;;;;;;;;;;;;;;;;4963302;28;19962;-79
2022/05/23 15:11:22;;;;;;;;;;;;;;;;;;4982948;28;19944;-78
2022/05/23 15:13:50;;;;;;;;;;;;;;;;;;4983398;28;19918;-79
2022/05/23 15:16:19;;;;;;;;;;;;;;;;;;4972747;28;19978;-78
2022/05/23 15:18:46;;;;;;;;;;;;;;;;;;4997582;28;19953;-78
2022/05/23 15:21:12;;;;;;;;;;;;;;;;;;4980370;28;19925;-78
2022/05/23 15:23:40;;;;;;;;;;;;;;;;;;4962923;28;19922;-78
2022/05/23 15:26:06;;;;;;;;;;;;;;;;;;4962964;28;19914;-78
2022/05/23 15:28:32;;;;;;;;;;;;;;;;;;4962700;28;19923;-78
2022/05/23 15:30:57;;;;;;;;;;;;;;;;;;4962879;28;19918;-78
2022/05/23 15:33:23;;;;;;;;;;;;;;;;;;4979982;28;19914;-78
2022/05/23 15:35:48;;;;;;;;;;;;;;;;;;4980779;28;20338;-78
2022/05/23 15:38:14;;;;;;;;;;;;;;;;;;4947313;28;19918;-78
2022/05/23 15:40:40;;;;;;;;;;;;;;;;;;4962441;28;20280;-78
2022/05/23 15:43:09;;;;;;;;;;;;;;;;;;4979890;28;19918;-78
2022/05/23 15:45:34;;;;;;;;;;;;;;;;;;4967735;28;19972;-78
2022/05/23 15:48:04;;;;;;;;;;;;;;;;;;4978111;28;19922;-78
2022/05/23 15:50:30;;;;;;;;;;;;;;;;;;4946119;28;19932;-78
2022/05/23 15:52:55;;;;;;;;;;;;;;;;;;4979736;28;19918;-78
2022/05/23 15:55:21;;;;;;;;;;;;;;;;;;4964060;28;19960;-78
2022/05/23 15:57:50;;;;;;;;;;;;;;;;;;4999436;28;19917;-78
2022/05/23 16:00:17;;;;;;;;;;;;;;;;;;4966015;28;20004;-78
2022/05/23 16:02:51;;;;;;;;;;;;;;;;;;4981877;28;19924;-78
2022/05/23 16:05:17;;;;;;;;;;;;;;;;;;4982290;28;19917;-79
2022/05/23 16:07:43;;;;;;;;;;;;;;;;;;4999367;28;19922;-79
2022/05/23 16:10:08;;;;;;;;;;;;;;;;;;4967127;28;19917;-79
2022/05/23 16:12:35;;;;;;;;;;;;;;;;;;4981944;28;20387;-80
2022/05/23 16:15:01;;;;;;;;;;;;;;;;;;4974839;28;20387;-79
2022/05/23 16:17:27;;;;;;;;;;;;;;;;;;5000595;28;20016;-79
2022/05/23 16:19:54;;;;;;;;;;;;;;;;;;4983990;28;19917;-78
2022/05/23 16:22:23;;;;;;;;;;;;;;;;;;4984730;28;20291;-78
2022/05/23 16:24:49;;;;;;;;;;;;;;;;;;5018500;28;19921;-79
2022/05/23 16:27:15;;;;;;;;;;;;;;;;;;5000673;28;19968;-78
2022/05/23 16:29:40;;;;;;;;;;;;;;;;;;5000521;28;20299;-78
2022/05/23 16:32:06;;;;;;;;;;;;;;;;;;4983782;28;19932;-78
2022/05/23 16:37:16;;;;;;;;;;;;;;;;;;4981070;28;19917;-78
2022/05/23 16:39:43;;;;;;;;;;;;;;;;;;4965132;28;20004;-78
2022/05/23 16:42:09;;;;;;;;;;;;;;;;;;4964706;28;20438;-78
2022/05/23 16:44:34;;;;;;;;;;;;;;;;;;4964827;28;19941;-78
2022/05/23 16:46:59;;;;;;;;;;;;;;;;;;4965046;28;19956;-78
2022/05/23 16:49:27;;;;;;;;;;;;;;;;;;4980845;28;19922;-78
2022/05/23 16:51:53;;;;;;;;;;;;;;;;;;4980759;28;19917;-78
2022/05/23 16:54:18;;;;;;;;;;;;;;;;;;4977706;28;19980;-78
2022/05/23 16:56:44;;;;;;;;;;;;;;;;;;4977662;28;19918;-78
2022/05/23 16:59:09;;;;;;;;;;;;;;;;;;4979399;28;20418;-78
2022/05/23 17:01:35;;;;;;;;;;;;;;;;;;4980821;28;19918;-78
2022/05/23 17:04:00;;;;;;;;;;;;;;;;;;4964395;28;19918;-78
2022/05/23 17:06:27;;;;;;;;;;;;;;;;;;4966314;28;20292;-77
2022/05/23 17:08:52;;;;;;;;;;;;;;;;;;4976745;28;19989;-78
2022/05/23 17:11:18;;;;;;;;;;;;;;;;;;4942621;28;19969;-77
2022/05/23 17:13:43;;;;;;;;;;;;;;;;;;4958507;28;19914;-77
2022/05/23 17:16:09;;;;;;;;;;;;;;;;;;4959032;28;20332;-77
2022/05/23 17:18:34;;;;;;;;;;;;;;;;;;4943270;28;19969;-77
2022/05/23 17:21:01;;;;;;;;;;;;;;;;;;4975506;28;19925;-77
2022/05/23 17:23:26;;;;;;;;;;;;;;;;;;4943201;28;20295;-77
2022/05/23 17:25:52;;;;;;;;;;;;;;;;;;4959968;28;19918;-77
2022/05/23 17:28:17;;;;;;;;;;;;;;;;;;4977057;28;19926;-77
2022/05/23 17:30:44;;;;;;;;;;;;;;;;;;4976559;28;20466;-77
2022/05/23 17:33:10;;;;;;;;;;;;;;;;;;4959529;28;19918;-77
2022/05/23 17:35:35;;;;;;;;;;;;;;;;;;4959842;28;19918;-78
2022/05/23 17:38:01;;;;;;;;;;;;;;;;;;4959921;28;20435;-78
2022/05/23 17:40:28;;;;;;;;;;;;;;;;;;4977474;28;19918;-78
2022/05/23 17:42:54;;;;;;;;;;;;;;;;;;4959644;28;19926;-77
2022/05/23 17:45:21;;;;;;;;;;;;;;;;;;4959073;28;19925;-77
2022/05/23 17:47:47;;;;;;;;;;;;;;;;;;4957728;28;20289;-77
2022/05/23 17:50:12;;;;;;;;;;;;;;;;;;4957839;28;20293;-76
2022/05/23 17:52:37;;;;;;;;;;;;;;;;;;4975201;28;19958;-77
2022/05/23 17:55:03;;;;;;;;;;;;;;;;;;4990830;28;20024;-78
2022/05/23 17:57:28;;;;;;;;;;;;;;;;;;4978439;28;20291;-76
2022/05/23 17:59:54;;;;;;;;;;;;;;;;;;4995284;28;19965;-77
2022/05/23 18:02:20;;;;;;;;;;;;;;;;;;4977437;28;19917;-76
2022/05/23 18:04:46;;;;;;;;;;;;;;;;;;4993392;28;19953;-76
2022/05/23 18:07:11;;;;;;;;;;;;;;;;;;4993204;28;19972;-76
2022/05/23 18:09:37;;;;;;;;;;;;;;;;;;4977011;28;19922;-77
2022/05/23 18:12:02;;;;;;;;;;;;;;;;;;4961105;28;20016;-76
2022/05/23 18:19:55;;;;;;;;;;;;;;;;;;4994362;28;19925;-76
2022/05/23 18:22:21;;;;;;;;;;;;;;;;;;4994305;28;19917;-76
2022/05/23 18:24:47;;;;;;;;;;;;;;;;;;4976936;28;19917;-77